Flight Track Log - Related Links

Times and Time Zones

All times are in EDT time to prevent confusion due to time zone crossing. See the N81ER flight status page for this flight to view local times or setup timezone preferences in your user account.

Time Position Orientation Groundspeed Altitude Reporting Facility
EDT Latitude Longitude Course Direction KTS MPH feet Rate Location/Type
Wed 12:05:19 PM 38.2825 -104.5750 269° West 204 235 7,700  Level Denver Center
Wed 12:10:00 PM 38.1167 -105.0223 270° West  Level FlightAware Approximate
Wed 12:11:08 PM 38.1327 -105.0710 269° West 265 305 20,300  Level FlightAware ADS-B
Wed 12:11:40 PM 38.1185 -105.1180 249° West 268 308 21,300 1,969 Climbing FlightAware ADS-B
Wed 12:12:12 PM 38.1043 -105.1640 249° West 270 311 22,400 2,118 Climbing FlightAware ADS-B
Wed 12:12:48 PM 38.0883 -105.2170 249° West 270 311 23,700 1,784 Climbing FlightAware ADS-B
Wed 12:13:26 PM 38.0709 -105.2730 248° West 276 318 24,600 1,558 Climbing FlightAware ADS-B
Wed 12:14:05 PM 38.0526 -105.3330 249° West 284 327 25,700 1,657 Climbing FlightAware ADS-B
Wed 12:15:11 PM 38.0206 -105.4370 249° West 287 330 27,500 1,750 Climbing FlightAware ADS-B
Wed 12:15:41 PM 38.0055 -105.4860 249° West 295 339 28,500 1,935 Climbing FlightAware ADS-B
Wed 12:16:13 PM 37.9897 -105.5370 249° West 304 350 29,500 1,524 Climbing FlightAware ADS-B
Wed 12:16:44 PM 37.9735 -105.5890 248° West 306 352 30,100 1,377 Climbing FlightAware ADS-B
Wed 12:17:14 PM 37.9582 -105.6390 249° West 300 345 30,900 1,574 Climbing FlightAware ADS-B
Wed 12:17:45 PM 37.9424 -105.6900 249° West 297 342 31,700 1,524 Climbing FlightAware ADS-B
Wed 12:18:17 PM 37.9268 -105.7400 248° West 298 343 32,500 1,355 Climbing FlightAware ADS-B
Wed 12:18:47 PM 37.9111 -105.7900 248° West 303 349 33,100 1,161 Climbing FlightAware ADS-B
Wed 12:19:19 PM 37.8947 -105.8420 248° West 307 353 33,700 1,157 Climbing FlightAware ADS-B
Wed 12:20:10 PM 37.8675 -105.9290 248° West 314 361 34,700 1,187 Climbing FlightAware ADS-B
Wed 12:20:50 PM 37.8459 -105.9980 248° West 316 364 35,500 1,169 Climbing FlightAware ADS-B
Wed 12:21:27 PM 37.8256 -106.0620 248° West 322 371 36,200 1,277 Climbing FlightAware ADS-B
Wed 12:22:24 PM 37.7950 -106.1590 248° West 313 360 37,500 1,347 Climbing FlightAware ADS-B
Wed 12:23:05 PM 37.7730 -106.2280 248° West 306 352 38,400 1,294 Climbing FlightAware ADS-B
Wed 12:23:15 PM 37.7681 -106.2440 249° West 308 354 38,600 900 Climbing FlightAware ADS-B
Wed 12:23:45 PM 37.7530 -106.2910 248° West 301 346 39,000 941 Climbing FlightAware ADS-B
Wed 12:24:06 PM 37.7414 -106.3280 248° West 301 346 39,400 909 Climbing FlightAware ADS-B
Wed 12:24:51 PM 37.7179 -106.4020 248° West 307 353 40,000 474 Climbing FlightAware ADS-B
Wed 12:25:22 PM 37.7014 -106.4540 248° West 320 368 40,000  Level FlightAware ADS-B
Wed 12:25:52 PM 37.6841 -106.5080 248° West 331 381 40,000  Level FlightAware ADS-B
Wed 12:26:30 PM 37.6630 -106.5750 248° West 344 396 40,000  Level FlightAware ADS-B
Wed 12:26:41 PM 37.6554 -106.5970 246° West 348 400 40,000  Level FlightAware ADS-B
Wed 12:27:17 PM 37.6333 -106.6660 248° West 356 410 40,000  Level FlightAware ADS-B
Wed 12:27:50 PM 37.6130 -106.7280 248° West 361 415 40,000  Level FlightAware ADS-B
Wed 12:28:21 PM 37.5934 -106.7900 248° West 359 413 40,000  Level FlightAware ADS-B
Wed 12:29:15 PM 37.5810 -106.8290 248° West 359 413 40,000  Level FlightAware ADS-B
Wed 12:29:50 PM 37.5380 -106.9590 247° West 358 412 40,000  Level FlightAware ADS-B
Wed 12:30:54 PM 37.4980 -107.0840 248° West 358 412 40,000  Level FlightAware ADS-B
Wed 12:31:30 PM 37.4750 -107.1530 247° West 356 410 40,000  Level FlightAware ADS-B
Wed 12:32:18 PM 37.4450 -107.2440 247° West 355 409 40,000  Level FlightAware ADS-B
Wed 12:33:00 PM 37.4190 -107.3250 248° West 354 407 40,000  Level FlightAware ADS-B
Wed 12:33:40 PM 37.3940 -107.4010 248° West 353 406 40,000  Level FlightAware ADS-B
Wed 12:34:18 PM 37.3700 -107.4720 247° West 351 404 40,000  Level FlightAware ADS-B
Wed 12:35:05 PM 37.3410 -107.5590 247° West 349 402 40,000  Level FlightAware ADS-B
Wed 12:35:56 PM 37.3270 -107.6030 248° West 349 402 40,000  Level FlightAware ADS-B
Wed 12:36:51 PM 37.2750 -107.7570 247° West 349 402 40,000  Level FlightAware ADS-B
Wed 12:37:25 PM 37.2570 -107.8110 247° West 350 403 40,000  Level FlightAware ADS-B
Wed 12:37:55 PM 37.2350 -107.8780 248° West 350 403 40,000  Level FlightAware ADS-B
Wed 12:38:43 PM 37.2060 -107.9640 247° West 351 404 40,000  Level FlightAware ADS-B
Wed 12:39:23 PM 37.1800 -108.0400 247° West 351 404 40,000  Level FlightAware ADS-B
Wed 12:40:00 PM 37.1560 -108.1110 247° West 350 403 40,000  Level FlightAware ADS-B
Wed 12:40:47 PM 37.1260 -108.1990 247° West 351 404 40,000  Level FlightAware ADS-B
Wed 12:41:29 PM 37.1000 -108.2750 247° West 351 404 40,000  Level FlightAware ADS-B
Wed 12:42:05 PM 37.0770 -108.3450 248° West 350 403 40,000  Level FlightAware ADS-B
Wed 12:42:52 PM 37.0480 -108.4290 247° West 352 405 40,000  Level FlightAware ADS-B
Wed 12:43:35 PM 37.0200 -108.5110 247° West 351 404 40,000  Level FlightAware ADS-B
Wed 12:44:11 PM 36.9960 -108.5800 246° West 351 404 40,000  Level FlightAware ADS-B
Wed 12:44:59 PM 36.9660 -108.6690 247° West 352 405 40,000  Level FlightAware ADS-B
Wed 12:46:07 PM 36.9270 -108.7790 246° West 352 405 40,000  Level FlightAware ADS-B
Wed 12:46:46 PM 36.9290 -108.7740 63° Northeast 350 403 40,000  Level FlightAware ADS-B
Wed 12:47:50 PM 36.8930 -108.8740 246° West 350 403 40,000  Level FlightAware ADS-B
Wed 12:48:30 PM 36.8710 -108.9370 246° West 350 403 40,000  Level FlightAware ADS-B
Wed 12:49:08 PM 36.8490 -108.9970 245° Southwest 350 403 40,000  Level FlightAware ADS-B
Wed 12:49:54 PM 36.8240 -109.0690 247° West 350 403 40,000  Level FlightAware ADS-B
Wed 12:50:35 PM 36.8010 -109.1340 246° West 350 403 40,000  Level FlightAware ADS-B
Wed 12:51:11 PM 36.7810 -109.1900 246° West 350 403 40,000  Level FlightAware ADS-B
Wed 12:52:11 PM 36.7470 -109.2840 246° West 350 403 40,000  Level FlightAware ADS-B
Wed 12:52:49 PM 36.7260 -109.3440 246° West 350 403 40,000  Level FlightAware ADS-B
Wed 12:53:28 PM 36.7040 -109.4050 246° West 350 403 40,000  Level FlightAware ADS-B
Wed 12:54:10 PM 36.6800 -109.4710 246° West 350 403 40,000  Level FlightAware ADS-B
Wed 12:55:27 PM 36.6370 -109.5920 246° West 350 403 40,000  Level FlightAware ADS-B
Wed 12:56:04 PM 36.6170 -109.6500 247° West 350 403 40,000  Level FlightAware ADS-B
Wed 12:57:25 PM 36.4780 -110.0500 247° West 346 398 40,000  Level FlightAware ADS-B
Wed 12:58:04 PM 36.4520 -110.1230 246° West 346 398 40,000  Level FlightAware ADS-B
Wed 12:58:46 PM 36.4250 -110.1990 246° West 346 398 40,000  Level FlightAware ADS-B
Wed 12:59:30 PM 36.3960 -110.2780 246° West 345 397 40,000  Level FlightAware ADS-B
Wed 01:00:08 PM 36.3710 -110.3450 245° Southwest 344 396 40,000  Level FlightAware ADS-B
Wed 01:01:08 PM 36.3320 -110.4540 246° West 342 394 40,000  Level FlightAware ADS-B
Wed 01:01:48 PM 36.3060 -110.5260 246° West 342 394 40,000  Level FlightAware ADS-B
Wed 01:02:33 PM 36.2770 -110.6040 245° Southwest 340 391 40,000  Level FlightAware ADS-B
Wed 01:03:14 PM 36.2500 -110.6780 246° West 340 391 40,000  Level FlightAware ADS-B
Wed 01:03:50 PM 36.2260 -110.7410 245° Southwest 339 390 40,000  Level FlightAware ADS-B
Wed 01:04:38 PM 36.1960 -110.8250 246° West 339 390 40,000  Level FlightAware ADS-B
Wed 01:05:15 PM 36.1710 -110.8900 245° Southwest 338 389 40,000  Level FlightAware ADS-B
Wed 01:05:59 PM 36.1420 -110.9680 245° Southwest 340 391 40,000  Level FlightAware ADS-B
Wed 01:06:43 PM 36.1140 -111.0460 246° West 338 389 40,000  Level FlightAware ADS-B
Wed 01:07:25 PM 36.0860 -111.1190 245° Southwest 339 390 40,000  Level FlightAware ADS-B
Wed 01:08:09 PM 36.0580 -111.1950 246° West 340 391 40,000  Level FlightAware ADS-B
Wed 01:08:47 PM 36.0330 -111.2620 245° Southwest 341 392 40,000  Level FlightAware ADS-B
Wed 01:09:31 PM 36.0030 -111.3420 245° Southwest 344 396 40,000  Level FlightAware ADS-B
Wed 01:10:03 PM 35.9810 -111.4000 245° Southwest 344 396 40,000  Level FlightAware ADS-B
Wed 01:10:57 PM 35.9500 -111.4810 245° Southwest 347 399 40,000  Level FlightAware ADS-B
Wed 01:11:52 PM 35.9290 -111.5380 246° West 345 397 40,000  Level FlightAware ADS-B
Wed 01:12:35 PM 35.8790 -111.6690 245° Southwest 345 397 40,000  Level FlightAware ADS-B
Wed 01:13:19 PM 35.8500 -111.7460 245° Southwest 346 398 40,000  Level FlightAware ADS-B
Wed 01:13:51 PM 35.8270 -111.8050 244° Southwest 350 403 40,000  Level FlightAware ADS-B
Wed 01:14:35 PM 35.7970 -111.8850 245° Southwest 350 403 40,000  Level FlightAware ADS-B
Wed 01:15:25 PM 35.7620 -111.9760 245° Southwest 350 403 40,000  Level FlightAware ADS-B
Wed 01:15:55 PM 35.7420 -112.0280 245° Southwest 349 402 40,000  Level FlightAware ADS-B
Wed 01:16:23 PM 35.7230 -112.0780 245° Southwest 348 400 40,000  Level FlightAware ADS-B
Wed 01:17:07 PM 35.6920 -112.1570 244° Southwest 346 398 40,000  Level FlightAware ADS-B
Wed 01:17:49 PM 35.6630 -112.2330 245° Southwest 346 398 40,000  Level FlightAware ADS-B
Wed 01:18:27 PM 35.6370 -112.3000 244° Southwest 347 399 40,000  Level FlightAware ADS-B
Wed 01:19:13 PM 35.6050 -112.3810 244° Southwest 347 399 40,000  Level FlightAware ADS-B
Wed 01:19:57 PM 35.5750 -112.4590 245° Southwest 347 399 40,000  Level FlightAware ADS-B
Wed 01:20:33 PM 35.5500 -112.5240 245° Southwest 349 402 40,000  Level FlightAware ADS-B
Wed 01:21:21 PM 35.5170 -112.6080 244° Southwest 350 403 40,000  Level FlightAware ADS-B
Wed 01:22:01 PM 35.4890 -112.6800 244° Southwest 350 403 40,000  Level FlightAware ADS-B
Wed 01:22:43 PM 35.4590 -112.7560 244° Southwest 351 404 40,000  Level FlightAware ADS-B
Wed 01:23:27 PM 35.4280 -112.8350 244° Southwest 353 406 40,000  Level FlightAware ADS-B
Wed 01:24:03 PM 35.4030 -112.8980 244° Southwest 352 405 40,000  Level FlightAware ADS-B
Wed 01:24:51 PM 35.3680 -112.9860 244° Southwest 351 404 40,000  Level FlightAware ADS-B
Wed 01:25:29 PM 35.3420 -113.0530 245° Southwest 351 404 40,000  Level FlightAware ADS-B
Wed 01:26:09 PM 35.3130 -113.1250 244° Southwest 351 404 40,000  Level FlightAware ADS-B
Wed 01:26:55 PM 35.2800 -113.2080 244° Southwest 353 406 40,000  Level FlightAware ADS-B
Wed 01:27:37 PM 35.2500 -113.2820 244° Southwest 353 406 40,000  Level FlightAware ADS-B
Wed 01:28:21 PM 35.2180 -113.3630 244° Southwest 355 409 40,000  Level FlightAware ADS-B
Wed 01:29:01 PM 35.1900 -113.4330 244° Southwest 353 406 40,000  Level FlightAware ADS-B
Wed 01:29:43 PM 35.1600 -113.5070 244° Southwest 354 407 40,000  Level FlightAware ADS-B
Wed 01:30:22 PM 35.1310 -113.5790 244° Southwest 353 406 40,000  Level FlightAware ADS-B
Wed 01:31:02 PM 35.1090 -113.6340 244° Southwest 351 404 40,000  Level FlightAware ADS-B
Wed 01:31:49 PM 35.0690 -113.7330 244° Southwest 348 400 40,000  Level FlightAware ADS-B
Wed 01:32:30 PM 35.0410 -113.8030 244° Southwest 348 400 40,000 -366 Level FlightAware ADS-B
Wed 01:33:11 PM 35.0100 -113.8780 243° Southwest 348 400 39,500 -1,214 Descending FlightAware ADS-B
Wed 01:33:54 PM 34.9800 -113.9520 244° Southwest 349 402 38,300 -1,674 Descending FlightAware ADS-B
Wed 01:34:37 PM 34.9490 -114.0290 244° Southwest 347 399 37,100 -1,208 Descending FlightAware ADS-B
Wed 01:36:23 PM 34.9020 -114.1430 243° Southwest 342 394 35,300 -1,627 Descending FlightAware ADS-B
Wed 01:36:35 PM 34.8660 -114.2310 244° Southwest 345 397 33,900 -2,560 Descending FlightAware ADS-B
Wed 01:37:38 PM 34.8200 -114.3420 243° Southwest 353 406 32,100 -1,698 Descending FlightAware ADS-B
Wed 01:38:21 PM 34.7890 -114.4190 244° Southwest 354 407 30,900 -1,482 Descending FlightAware ADS-B
Wed 01:39:03 PM 34.7510 -114.4900 237° Southwest 357 411 30,000 -675 Descending FlightAware ADS-B
Wed 01:39:41 PM 34.7060 -114.5430 224° Southwest 363 418 30,000  Level FlightAware ADS-B
Wed 01:40:35 PM 34.6400 -114.6180 223° Southwest 368 423 30,000 -124 Level FlightAware ADS-B
Wed 01:41:18 PM 34.5870 -114.6790 223° Southwest 373 429 29,800 -600 Descending FlightAware ADS-B
Wed 01:41:55 PM 34.5380 -114.7340 223° Southwest 379 436 29,200 -319 Descending FlightAware ADS-B
Wed 01:43:11 PM 34.4550 -114.8280 223° Southwest 379 436 29,200  Level FlightAware ADS-B
Wed 01:43:50 PM 34.4130 -114.8760 223° Southwest 379 436 29,200  Level FlightAware ADS-B
Wed 01:44:26 PM 34.3740 -114.9200 223° Southwest 379 436 29,200  Level FlightAware ADS-B
Wed 01:45:13 PM 34.3220 -114.9780 223° Southwest 379 436 29,200  Level FlightAware ADS-B
Wed 01:45:51 PM 34.2810 -115.0250 223° Southwest 379 436 29,200 -947 Level FlightAware ADS-B
Wed 01:46:29 PM 34.1981 -115.1172 223° Southwest 370 426 28,000 -720 Descending Los Angeles Center
Wed 01:47:31 PM 34.1231 -115.2025 223° Southwest 371 427 28,000  Level Los Angeles Center
Wed 01:48:33 PM 34.0464 -115.2867 222° Southwest 371 427 28,000  Level Los Angeles Center
Wed 01:49:35 PM 33.9719 -115.3714 223° Southwest 369 425 28,000  Level Los Angeles Center
Wed 01:50:38 PM 33.8794 -115.4736 223° Southwest 376 433 28,000  Level Los Angeles Center
Wed 01:51:40 PM 33.8025 -115.5592 223° Southwest 377 434 28,000 -627 Level Los Angeles Center
Wed 01:57:01 PM 33.4250 -116.0330 223° Southwest 356 410 24,000 -660 Descending FlightAware ADS-B
Wed 01:57:53 PM 33.3640 -116.0930 219° Southwest 356 410 23,900 -65 Descending FlightAware ADS-B
Wed 01:58:34 PM 33.3190 -116.1360 219° Southwest 356 410 23,900  Level FlightAware ADS-B
Wed 01:59:22 PM 33.2670 -116.1870 219° Southwest 356 410 23,900  Level FlightAware ADS-B
Wed 01:59:59 PM 33.2270 -116.2260 219° Southwest 356 410 23,900  Level FlightAware ADS-B
Wed 02:00:41 PM 33.1810 -116.2700 219° Southwest 356 410 23,900 -3,398 Level FlightAware ADS-B
Wed 02:04:15 PM 32.9120 -116.5250 219° Southwest 266 306 9,400 -3,861 Descending FlightAware ADS-B
Wed 02:04:31 PM 32.8990 -116.5470 235° Southwest 268 308 9,100 -600 Descending FlightAware ADS-B
Wed 02:04:45 PM 32.8900 -116.5630 236° Southwest 267 307 9,100 -158 Level FlightAware ADS-B
Wed 02:05:09 PM 32.8730 -116.5910 234° Southwest 273 314 9,000 -118 Descending FlightAware ADS-B
Wed 02:05:36 PM 32.8540 -116.6240 236° Southwest 278 320 9,000 -231 Level FlightAware ADS-B
Wed 02:06:01 PM 32.8340 -116.6580 235° Southwest 282 325 8,800 -732 Descending FlightAware ADS-B
Wed 02:06:17 PM 32.8220 -116.6780 234° Southwest 280 322 8,500 -1,050 Descending FlightAware ADS-B
Wed 02:06:41 PM 32.8050 -116.7090 237° Southwest 277 319 8,100 -692 Descending FlightAware ADS-B
Wed 02:07:09 PM 32.7840 -116.7430 234° Southwest 275 316 7,900 -1,034 Descending FlightAware ADS-B
Wed 02:07:39 PM 32.7620 -116.7820 236° Southwest 281 323 7,100 -1,552 Descending FlightAware ADS-B
Wed 02:08:07 PM 32.7420 -116.8150 234° Southwest 271 312 6,400 -1,500 Descending FlightAware ADS-B
Wed 02:08:23 PM 32.7300 -116.8360 236° Southwest 266 306 6,000 -1,500 Descending FlightAware ADS-B
Wed 02:08:43 PM 32.7170 -116.8590 236° Southwest 261 300 5,500 -1,500 Descending FlightAware ADS-B
Wed 02:09:15 PM 32.6960 -116.8950 235° Southwest 248 285 4,700 -1,393 Descending FlightAware ADS-B
Wed 02:09:39 PM 32.6810 -116.9220 237° Southwest 229 264 4,200 -1,050 Descending FlightAware ADS-B
Wed 02:09:55 PM 32.6770 -116.9400 255° West 210 242 4,000 -522 Descending FlightAware ADS-B
Wed 02:10:25 PM 32.6800 -116.9720 276° West 196 226 3,800 -436 Descending FlightAware ADS-B
Wed 02:10:50 PM 32.6820 -116.9830 282° West 193 222 3,600 -1,034 Descending FlightAware ADS-B
Wed 02:11:52 PM 32.7020 -117.0570 288° West 172 198 2,300 -1,146 Descending FlightAware ADS-B
Wed 02:12:19 PM 32.7070 -117.0810 284° West 165 190 1,900 -679 Descending FlightAware ADS-B
Wed 02:12:45 PM 32.7120 -117.1020 286° West 147 169 1,700 -750 Descending FlightAware ADS-B
Wed 02:13:15 PM 32.7180 -117.1250 287° West 130 150 1,200 -915 Descending FlightAware ADS-B
Wed 02:13:44 PM 32.7220 -117.1430 285° West 125 144 800 -750 Descending FlightAware ADS-B
Wed 02:13:55 PM 32.7240 -117.1510 287° West 125 144 700 -585 Descending FlightAware ADS-B
Wed 02:14:25 PM 32.7290 -117.1700 287° West 123 142 400 -407 Descending FlightAware ADS-B
Wed 02:14:54 PM 32.7330 -117.1880 285° West 123 142 300 -207 Descending FlightAware ADS-B
Wed 02:15:21 PM 32.7340 -117.1920 287° West 16 18 -667 Descending FlightAware ADS-B
Wed 02:15:28 PM 32.7340 -117.1910 90° East 20 23  Level FlightAware ADS-B
Wed 02:22:00 PM 32.7333 -117.1833 281° West  Level FlightAware Approximate
Wed 02:23:00 PM 32.7336 -117.1897 281° West  Level Estimated

Login

Don't have an account? Register now (free) for customized features, flight alerts, and more!